Time;durP1;ratioP1;P1;durP2;ratioP2;P2;SDS_P1;SDS_P2;PMS_P1;PMS_P2;Temp;Humidity;BMP_temperature;BMP_pressure;BME280_temperature;BME280_humidity;BME280_pressure;Samples;Min_cycle;Max_cycle;Signal;HPM_P1;HPM_P2
2020/12/02 00:00:16;;;;;;;1.40;1.30;;;;;;;20.94;47.90;101389.22;5055978;28;20217;-69
2020/12/02 00:03:12;;;;;;;1.43;1.33;;;;;;;20.90;47.88;101390.56;5055996;28;20187;-69
2020/12/02 00:05:40;;;;;;;1.10;1.10;;;;;;;20.83;47.80;101393.13;5040050;28;20647;-69
2020/12/02 00:08:11;;;;;;;1.10;1.10;;;;;;;20.79;47.59;101388.16;5056054;28;20226;-69
2020/12/02 00:10:37;;;;;;;1.33;1.23;;;;;;;20.75;47.79;101390.34;5073228;28;20294;-71
2020/12/02 00:13:10;;;;;;;1.17;1.07;;;;;;;20.71;47.56;101385.41;5055856;28;20434;-69
2020/12/02 00:15:36;;;;;;;1.37;1.30;;;;;;;20.66;47.67;101385.06;5039460;28;20227;-68
2020/12/02 00:18:02;;;;;;;1.23;1.20;;;;;;;20.63;47.71;101386.25;5055834;28;20218;-69
2020/12/02 00:20:28;;;;;;;1.37;1.27;;;;;;;20.59;48.05;101392.19;5055647;28;20191;-71
2020/12/02 00:22:54;;;;;;;1.10;1.10;;;;;;;20.53;47.90;101386.38;5055677;28;20506;-71
2020/12/02 00:25:20;;;;;;;1.30;1.20;;;;;;;20.47;48.15;101384.31;5072899;28;20187;-69
2020/12/02 00:27:46;;;;;;;1.13;1.13;;;;;;;20.44;47.95;101387.38;5071972;28;20295;-69
2020/12/02 00:30:14;;;;;;;1.20;1.20;;;;;;;20.41;47.91;101384.13;5071917;28;20646;-69
2020/12/02 00:32:43;;;;;;;1.40;1.30;;;;;;;20.37;48.05;101380.84;5055337;28;20215;-69
2020/12/02 00:35:13;;;;;;;1.33;1.23;;;;;;;20.35;47.89;101388.31;5055469;28;20277;-68
2020/12/02 00:37:39;;;;;;;1.17;1.17;;;;;;;20.29;47.87;101382.66;5055152;28;20529;-68
2020/12/02 00:40:06;;;;;;;1.23;1.23;;;;;;;20.26;47.86;101378.41;5071690;28;20207;-69
2020/12/02 00:42:32;;;;;;;1.37;1.27;;;;;;;20.21;47.99;101381.63;5071724;28;20190;-71
2020/12/02 00:44:58;;;;;;;1.30;1.30;;;;;;;20.17;48.08;101384.84;5038547;28;20392;-69
2020/12/02 00:47:24;;;;;;;1.10;1.10;;;;;;;20.11;48.11;101380.03;5037110;28;20291;-69
2020/12/02 00:49:55;;;;;;;1.40;1.30;;;;;;;20.07;48.01;101384.09;5055037;28;20191;-69
2020/12/02 00:52:21;;;;;;;1.00;1.00;;;;;;;19.99;48.25;101378.63;5037239;28;20306;-67
2020/12/02 00:54:47;;;;;;;1.50;1.40;;;;;;;19.95;48.02;101371.81;5054734;28;20279;-69
2020/12/02 00:57:33;;;;;;;1.50;1.40;;;;;;;19.91;48.06;101377.56;5071258;28;20207;-69
2020/12/02 00:59:59;;;;;;;1.60;1.50;;;;;;;19.87;48.05;101369.88;5071465;28;20179;-69
2020/12/02 01:03:04;;;;;;;1.20;1.10;;;;;;;19.82;48.05;101380.38;5051933;28;20267;-69
2020/12/02 01:05:31;;;;;;;1.20;1.20;;;;;;;19.77;48.13;101375.41;5013713;28;20197;-69
2020/12/02 01:08:12;;;;;;;1.13;1.13;;;;;;;19.75;48.31;101380.16;5044082;28;20227;-69
2020/12/02 01:10:38;;;;;;;1.30;1.20;;;;;;;19.69;48.18;101369.09;5036458;28;20223;-68
2020/12/02 01:13:04;;;;;;;1.30;1.30;;;;;;;19.65;48.27;101374.00;5034810;28;20242;-69
2020/12/02 01:15:30;;;;;;;1.40;1.30;;;;;;;19.61;48.38;101369.88;5052123;28;20279;-69
2020/12/02 01:18:17;;;;;;;1.40;1.30;;;;;;;19.56;48.47;101364.91;5034738;28;20534;-69
2020/12/02 01:20:43;;;;;;;1.63;1.53;;;;;;;19.51;48.28;101366.38;5018253;28;20563;-69
2020/12/02 01:23:14;;;;;;;1.17;1.17;;;;;;;19.47;48.25;101362.28;5050837;28;20275;-69
2020/12/02 01:25:41;;;;;;;1.23;1.23;;;;;;;19.43;48.33;101364.47;5034607;28;20191;-69
2020/12/02 01:28:07;;;;;;;1.30;1.30;;;;;;;19.38;48.63;101371.34;5050774;28;20295;-69
2020/12/02 01:30:35;;;;;;;1.30;1.30;;;;;;;19.36;48.39;101370.66;5050762;28;20180;-69
2020/12/02 01:33:01;;;;;;;1.30;1.20;;;;;;;19.33;48.41;101375.41;5017896;28;20184;-70
2020/12/02 01:35:28;;;;;;;1.30;1.30;;;;;;;19.29;48.44;101368.59;5050765;28;20187;-68
2020/12/02 01:38:03;;;;;;;1.33;1.27;;;;;;;19.24;48.59;101376.34;5034199;28;20219;-68
2020/12/02 01:40:30;;;;;;;1.40;1.30;;;;;;;19.23;48.51;101376.50;5034697;28;20683;-68
2020/12/02 01:43:01;;;;;;;1.10;1.10;;;;;;;19.17;48.54;101380.72;5034423;28;20180;-69
2020/12/02 01:45:56;;;;;;;1.50;1.40;;;;;;;19.12;48.81;101380.28;5050530;28;20670;-68
2020/12/02 01:48:47;;;;;;;1.67;1.57;;;;;;;19.08;48.67;101375.34;5049491;28;20224;-68
2020/12/02 01:51:25;;;;;;;1.20;1.20;;;;;;;19.04;49.00;101382.09;5050457;28;20254;-69
2020/12/02 01:54:01;;;;;;;1.40;1.30;;;;;;;18.98;49.00;101373.56;5035088;28;20616;-68
2020/12/02 01:56:46;;;;;;;1.33;1.27;;;;;;;18.96;48.78;101380.16;5050742;28;20180;-69
2020/12/02 01:59:26;;;;;;;1.37;1.37;;;;;;;18.95;48.99;101375.75;5034449;28;20191;-69
2020/12/02 02:02:13;;;;;;;1.60;1.50;;;;;;;18.89;49.06;101371.75;5050371;28;20274;-69
2020/12/02 02:04:45;;;;;;;1.57;1.47;;;;;;;18.83;49.27;101372.38;5051530;28;20184;-70
2020/12/02 02:07:19;;;;;;;1.50;1.40;;;;;;;18.81;49.12;101378.97;5050303;28;20278;-70
2020/12/02 02:09:47;;;;;;;1.60;1.50;;;;;;;18.78;48.94;101379.28;5050490;28;20190;-68
2020/12/02 02:12:35;;;;;;;1.10;1.10;;;;;;;18.76;48.98;101370.44;5050074;28;20211;-68
2020/12/02 02:15:14;;;;;;;1.20;1.20;;;;;;;18.74;49.10;101375.19;5051158;28;20184;-68
2020/12/02 02:17:40;;;;;;;1.40;1.30;;;;;;;18.69;48.86;101375.59;5050270;28;20208;-68
2020/12/02 02:20:09;;;;;;;1.37;1.27;;;;;;;18.66;49.50;101376.78;5033772;28;20180;-68
2020/12/02 02:22:35;;;;;;;1.50;1.40;;;;;;;18.63;48.98;101371.66;5051109;28;20176;-68
2020/12/02 02:25:01;;;;;;;1.60;1.50;;;;;;;18.60;49.02;101371.06;5050184;28;20736;-68
2020/12/02 02:27:27;;;;;;;1.63;1.53;;;;;;;18.56;49.17;101372.41;5033541;28;20208;-69
2020/12/02 02:29:53;;;;;;;1.30;1.30;;;;;;;18.56;49.15;101366.97;5050159;28;20196;-68
2020/12/02 02:32:26;;;;;;;1.40;1.20;;;;;;;18.51;49.39;101359.31;5050032;28;20357;-68
2020/12/02 02:34:54;;;;;;;1.50;1.40;;;;;;;18.49;49.44;101366.72;5035263;28;20261;-69
2020/12/02 02:37:21;;;;;;;1.40;1.40;;;;;;;18.43;49.33;101361.91;5033340;28;20298;-69
2020/12/02 02:39:47;;;;;;;1.50;1.40;;;;;;;18.43;49.76;101364.59;5050077;28;20184;-69
2020/12/02 02:42:34;;;;;;;1.70;1.60;;;;;;;18.40;49.50;101367.63;5033479;28;20181;-68
2020/12/02 02:45:02;;;;;;;1.50;1.40;;;;;;;18.39;49.25;101361.34;5051131;28;20521;-69
2020/12/02 02:47:28;;;;;;;1.33;1.27;;;;;;;18.35;49.68;101368.06;5049969;28;20208;-71
2020/12/02 02:49:54;;;;;;;1.30;1.30;;;;;;;18.31;49.60;101361.25;5033593;28;20204;-71
2020/12/02 02:52:20;;;;;;;1.60;1.50;;;;;;;18.31;49.62;101360.41;5049857;28;20261;-69
2020/12/02 02:54:46;;;;;;;1.20;1.20;;;;;;;18.30;49.60;101364.97;5017144;28;20203;-69
2020/12/02 02:57:12;;;;;;;1.50;1.40;;;;;;;18.25;49.77;101367.28;5051033;28;20204;-69
2020/12/02 02:59:38;;;;;;;1.80;1.70;;;;;;;18.28;49.38;101368.84;5033369;28;20192;-69
2020/12/02 03:02:04;;;;;;;1.60;1.50;;;;;;;18.27;49.64;101364.44;5051106;28;20202;-69
2020/12/02 03:04:31;;;;;;;1.43;1.33;;;;;;;18.25;49.49;101367.28;5050113;28;20184;-69
2020/12/02 03:06:57;;;;;;;1.60;1.50;;;;;;;18.23;49.95;101366.59;5049842;28;20191;-69
2020/12/02 03:09:23;;;;;;;1.33;1.33;;;;;;;18.21;49.75;101368.56;5050814;28;20188;-69
2020/12/02 03:11:52;;;;;;;1.60;1.50;;;;;;;18.17;49.57;101374.44;5049589;28;20216;-69
2020/12/02 03:14:18;;;;;;;1.70;1.60;;;;;;;18.12;50.02;101363.19;5050327;28;20238;-69
2020/12/02 03:16:49;;;;;;;1.47;1.37;;;;;;;18.09;49.88;101362.50;5054295;28;20275;-69
2020/12/02 03:19:26;;;;;;;1.60;1.50;;;;;;;18.12;49.86;101366.75;5036925;28;20271;-69
2020/12/02 03:21:53;;;;;;;1.40;1.30;;;;;;;18.17;49.96;101361.75;5036639;28;20191;-69
2020/12/02 03:24:19;;;;;;;1.40;1.30;;;;;;;18.22;50.06;101355.91;5053095;28;20267;-69
2020/12/02 03:26:46;;;;;;;1.60;1.50;;;;;;;18.23;49.97;101363.03;5036657;28;20612;-69
2020/12/02 03:29:12;;;;;;;1.50;1.40;;;;;;;18.24;50.21;101356.59;5036745;28;20188;-69
2020/12/02 03:31:38;;;;;;;1.30;1.30;;;;;;;18.27;49.84;101364.44;5053065;28;20208;-69
2020/12/02 03:34:05;;;;;;;1.77;1.67;;;;;;;18.26;50.27;101352.72;5036405;28;20657;-68
2020/12/02 03:36:31;;;;;;;1.63;1.53;;;;;;;18.26;50.27;101358.16;5019910;28;20287;-69
2020/12/02 03:38:58;;;;;;;1.20;1.20;;;;;;;18.27;50.15;101359.00;5052868;28;20259;-71
2020/12/02 03:41:24;;;;;;;1.20;1.20;;;;;;;18.28;50.00;101358.00;5052943;28;20183;-69
2020/12/02 03:43:50;;;;;;;1.40;1.30;;;;;;;18.26;49.81;101341.91;5052903;28;20188;-69
2020/12/02 03:46:16;;;;;;;1.40;1.30;;;;;;;18.27;50.04;101350.88;5052863;28;20735;-70
2020/12/02 03:48:42;;;;;;;1.43;1.40;;;;;;;18.27;50.07;101350.88;5019755;28;20244;-71
2020/12/02 03:51:08;;;;;;;1.53;1.43;;;;;;;18.25;50.05;101350.19;5035821;28;20224;-69
2020/12/02 03:53:34;;;;;;;1.20;1.20;;;;;;;18.23;50.30;101349.47;5019570;28;20196;-69
2020/12/02 03:56:03;;;;;;;1.47;1.37;;;;;;;18.21;50.09;101341.47;5052621;28;20501;-70
2020/12/02 03:58:29;;;;;;;1.40;1.30;;;;;;;18.18;49.83;101339.06;5052525;28;20306;-68
2020/12/02 04:00:55;;;;;;;1.60;1.50;;;;;;;18.19;50.02;101345.34;5035927;28;20188;-69
2020/12/02 04:03:21;;;;;;;1.43;1.33;;;;;;;18.15;50.17;101342.06;5052503;28;20184;-69
2020/12/02 04:05:48;;;;;;;1.60;1.50;;;;;;;18.15;49.84;101333.09;5053336;28;20534;-69
2020/12/02 04:08:14;;;;;;;1.60;1.50;;;;;;;18.14;49.99;101336.81;5052111;28;20223;-70
2020/12/02 04:10:40;;;;;;;1.57;1.47;;;;;;;18.11;49.72;101324.41;5019183;28;20184;-70
2020/12/02 04:13:06;;;;;;;1.50;1.40;;;;;;;18.09;50.28;101330.00;5035744;28;20275;-70
2020/12/02 04:15:32;;;;;;;1.60;1.50;;;;;;;18.06;50.05;101330.28;5035915;28;20184;-70
2020/12/02 04:17:58;;;;;;;1.40;1.30;;;;;;;18.02;50.03;101328.03;5052403;28;20212;-70
2020/12/02 04:20:24;;;;;;;1.50;1.40;;;;;;;17.98;49.77;101330.19;5052357;28;20208;-70
2020/12/02 04:22:51;;;;;;;1.60;1.50;;;;;;;17.98;50.16;101326.59;5035888;28;20188;-70
2020/12/02 04:25:18;;;;;;;1.50;1.40;;;;;;;17.95;49.97;101326.91;5051865;28;20196;-71
2020/12/02 04:27:44;;;;;;;1.80;1.70;;;;;;;17.94;50.15;101326.06;5035740;28;20876;-70
2020/12/02 04:30:10;;;;;;;1.70;1.60;;;;;;;17.87;50.32;101330.38;5052074;28;20192;-67
2020/12/02 04:32:36;;;;;;;1.60;1.50;;;;;;;17.87;50.14;101329.53;5035334;28;20212;-68
2020/12/02 04:35:03;;;;;;;1.47;1.43;;;;;;;17.89;49.90;101331.06;5051968;28;20188;-69
2020/12/02 04:37:33;;;;;;;1.50;1.40;;;;;;;17.87;50.41;101327.66;5052738;28;20230;-69
2020/12/02 04:39:59;;;;;;;1.70;1.60;;;;;;;17.85;49.84;101324.25;5051797;28;20545;-68
2020/12/02 04:42:29;;;;;;;1.40;1.40;;;;;;;17.87;49.96;101324.09;5035254;28;20620;-68
2020/12/02 04:44:55;;;;;;;1.57;1.47;;;;;;;17.90;50.40;101323.81;5035234;28;20184;-69
2020/12/02 04:47:33;;;;;;;1.60;1.50;;;;;;;17.94;49.88;101326.06;5051680;28;20196;-68
2020/12/02 04:49:59;;;;;;;1.43;1.40;;;;;;;17.94;50.35;101322.50;5051510;28;20216;-68
2020/12/02 04:52:25;;;;;;;1.23;1.20;;;;;;;17.94;50.14;101323.34;5034903;28;20670;-71
2020/12/02 04:54:51;;;;;;;1.40;1.30;;;;;;;17.95;50.44;101322.34;5051517;28;20190;-69
2020/12/02 04:57:17;;;;;;;1.60;1.50;;;;;;;17.97;50.12;101325.75;5034844;28;20806;-68
2020/12/02 04:59:44;;;;;;;1.57;1.47;;;;;;;17.99;50.13;101318.38;5051342;28;20181;-68
2020/12/02 05:02:23;;;;;;;1.27;1.27;;;;;;;18.00;50.31;101317.34;5051335;28;20228;-68
2020/12/02 05:04:56;;;;;;;1.40;1.30;;;;;;;18.01;50.21;101315.50;5035149;28;20258;-68
2020/12/02 05:07:24;;;;;;;1.60;1.50;;;;;;;18.01;50.50;101318.22;5052219;28;20556;-68
2020/12/02 05:09:57;;;;;;;1.60;1.50;;;;;;;18.03;50.20;101314.34;5035015;28;20188;-69
2020/12/02 05:12:28;;;;;;;1.40;1.40;;;;;;;18.03;50.48;101321.63;5035101;28;20761;-68
2020/12/02 05:15:05;;;;;;;1.40;1.30;;;;;;;18.03;50.06;101322.47;5052177;28;20176;-68
2020/12/02 05:17:31;;;;;;;1.50;1.40;;;;;;;18.02;50.10;101328.91;5036159;28;20214;-69
2020/12/02 05:20:12;;;;;;;1.80;1.70;;;;;;;18.00;50.20;101322.78;5034640;28;20577;-69
2020/12/02 05:22:43;;;;;;;1.37;1.27;;;;;;;18.00;50.52;101319.22;5018695;28;20187;-69
2020/12/02 05:25:27;;;;;;;1.40;1.30;;;;;;;17.99;50.44;101321.06;5018130;28;20188;-70
2020/12/02 05:28:15;;;;;;;1.40;1.30;;;;;;;17.99;50.52;101318.38;5050970;28;20200;-69
2020/12/02 05:30:41;;;;;;;1.47;1.40;;;;;;;17.96;50.26;101315.91;5047811;28;20210;-68
2020/12/02 05:33:13;;;;;;;1.43;1.40;;;;;;;17.96;50.11;101323.19;5034609;28;20180;-69
2020/12/02 05:35:41;;;;;;;1.40;1.30;;;;;;;17.94;49.92;101322.50;5051792;28;20188;-69
2020/12/02 05:38:08;;;;;;;1.50;1.40;;;;;;;17.91;50.29;101315.53;5051111;28;20283;-68
2020/12/02 05:40:34;;;;;;;1.43;1.33;;;;;;;17.91;50.31;101312.81;5034508;28;20172;-69
2020/12/02 05:43:06;;;;;;;1.40;1.30;;;;;;;17.94;49.84;101309.81;5050792;28;20267;-69
2020/12/02 05:45:38;;;;;;;1.50;1.40;;;;;;;17.99;50.39;101315.66;5035080;28;20180;-69
2020/12/02 05:48:06;;;;;;;1.60;1.50;;;;;;;18.06;50.30;101310.47;5034008;28;20648;-68
2020/12/02 05:50:32;;;;;;;1.40;1.30;;;;;;;18.14;49.91;101307.00;5034135;28;20317;-68
2020/12/02 05:53:10;;;;;;;1.47;1.37;;;;;;;18.01;49.69;101273.00;5051585;28;20180;-68
2020/12/02 05:55:36;;;;;;;1.70;1.60;;;;;;;18.27;49.51;101294.81;5034904;28;20175;-68
2020/12/02 05:58:19;;;;;;;1.53;1.43;;;;;;;18.33;49.64;101293.34;5051317;28;20205;-69
2020/12/02 06:00:45;;;;;;;1.60;1.50;;;;;;;18.36;49.83;101303.88;5050865;28;20679;-69
2020/12/02 06:03:13;;;;;;;1.40;1.30;;;;;;;18.40;49.58;101297.16;5034691;28;20191;-69
2020/12/02 06:05:39;;;;;;;1.47;1.37;;;;;;;18.42;49.43;101305.97;5034512;28;20237;-68
2020/12/02 06:08:06;;;;;;;1.20;1.20;;;;;;;18.43;49.57;101294.13;5050339;28;20208;-69
2020/12/02 06:10:42;;;;;;;1.50;1.40;;;;;;;18.46;49.44;101296.56;5034015;28;20183;-68
2020/12/02 06:13:14;;;;;;;1.50;1.40;;;;;;;18.47;49.80;101295.56;5050361;28;20194;-69
2020/12/02 06:15:40;;;;;;;2.20;2.07;;;;;;;18.52;49.96;101295.94;5034728;28;20192;-71
2020/12/02 06:18:27;;;;;;;2.50;2.30;;;;;;;18.55;50.37;101298.34;5050293;28;20873;-74
2020/12/02 06:20:54;;;;;;;2.20;2.10;;;;;;;18.57;50.61;101295.47;5050422;28;20180;-69
2020/12/02 06:23:20;;;;;;;1.93;1.83;;;;;;;18.35;50.73;101264.25;5051331;28;20177;-69
2020/12/02 06:25:50;;;;;;;2.27;2.17;;;;;;;18.52;50.40;101292.38;5017181;28;20898;-69
2020/12/02 06:28:22;;;;;;;2.03;1.93;;;;;;;18.50;50.37;101297.97;5050219;28;20260;-70
2020/12/02 06:31:04;;;;;;;2.10;2.00;;;;;;;18.49;50.07;101288.13;5050145;28;20226;-69
2020/12/02 06:33:35;;;;;;;1.93;1.83;;;;;;;18.48;50.36;101289.13;5050175;28;20237;-71
2020/12/02 06:36:17;;;;;;;2.10;2.00;;;;;;;18.47;50.31;101289.28;5017421;28;20184;-69
2020/12/02 06:38:44;;;;;;;1.80;1.70;;;;;;;18.44;50.16;101289.56;5050189;28;20220;-69
2020/12/02 06:41:23;;;;;;;2.07;1.97;;;;;;;18.43;50.30;101286.00;5050107;28;20255;-72
2020/12/02 06:44:06;;;;;;;2.10;2.00;;;;;;;18.40;49.77;101289.03;5050083;28;20207;-72
2020/12/02 06:46:54;;;;;;;1.90;1.80;;;;;;;18.37;49.84;101289.31;5050218;28;20264;-71
2020/12/02 06:49:26;;;;;;;1.90;1.80;;;;;;;18.35;49.99;101291.34;5053170;28;20624;-71
2020/12/02 06:52:08;;;;;;;1.80;1.70;;;;;;;18.30;49.92;101289.09;5021249;28;20204;-71
2020/12/02 06:54:37;;;;;;;1.90;1.80;;;;;;;18.26;49.84;101286.84;5036835;28;20176;-72
2020/12/02 06:57:18;;;;;;;2.13;2.03;;;;;;;18.24;49.83;101283.44;5053187;28;20184;-72
2020/12/02 06:59:58;;;;;;;2.10;2.00;;;;;;;18.20;49.92;101287.44;5053674;28;20180;-69
2020/12/02 07:02:53;;;;;;;2.10;2.00;;;;;;;18.16;49.76;101286.03;5020701;28;20625;-71
2020/12/02 07:05:33;;;;;;;1.80;1.70;;;;;;;18.16;49.86;101276.03;5054539;28;20238;-72
2020/12/02 07:08:19;;;;;;;1.83;1.73;;;;;;;18.14;49.95;101278.06;5054400;28;20258;-70
2020/12/02 07:11:05;;;;;;;1.77;1.67;;;;;;;18.14;50.04;101272.63;5053471;28;20180;-71
2020/12/02 07:13:33;;;;;;;1.90;1.80;;;;;;;18.13;50.09;101276.34;5053497;28;20184;-69
2020/12/02 07:15:59;;;;;;;1.80;1.70;;;;;;;18.13;50.23;101278.22;5053431;28;20176;-72
2020/12/02 07:18:26;;;;;;;1.70;1.60;;;;;;;18.11;50.52;101272.94;5053293;28;20334;-69
2020/12/02 07:21:24;;;;;;;1.70;1.60;;;;;;;18.14;50.40;101274.50;5036779;28;20191;-71
2020/12/02 07:23:50;;;;;;;1.60;1.50;;;;;;;18.15;50.13;101273.50;5053212;28;20202;-71
2020/12/02 07:26:16;;;;;;;1.67;1.57;;;;;;;18.13;50.11;101267.38;5053210;28;20535;-72
2020/12/02 07:28:42;;;;;;;1.67;1.57;;;;;;;18.15;50.28;101262.66;5053253;28;20278;-71
2020/12/02 07:31:17;;;;;;;1.77;1.67;;;;;;;18.16;50.14;101276.03;5053127;28;20258;-72
2020/12/02 07:33:56;;;;;;;1.73;1.63;;;;;;;18.15;50.45;101273.50;5037227;28;20199;-72
2020/12/02 07:36:24;;;;;;;1.70;1.60;;;;;;;18.16;50.24;101275.19;5053227;28;20219;-69
2020/12/02 07:38:57;;;;;;;2.07;1.97;;;;;;;18.15;50.35;101284.31;5036547;28;20566;-71
2020/12/02 07:41:23;;;;;;;1.90;1.80;;;;;;;18.14;50.40;101275.34;5037092;28;20188;-69
2020/12/02 07:43:50;;;;;;;1.70;1.60;;;;;;;18.14;49.87;101271.78;5036680;28;20625;-70
2020/12/02 07:46:16;;;;;;;1.70;1.60;;;;;;;18.13;49.80;101279.06;5020046;28;20185;-71
2020/12/02 07:48:42;;;;;;;1.70;1.60;;;;;;;18.13;50.06;101275.50;5036257;28;20204;-71
2020/12/02 07:51:19;;;;;;;1.43;1.40;;;;;;;18.09;49.78;101273.09;5019612;28;20560;-71
2020/12/02 07:53:45;;;;;;;1.83;1.73;;;;;;;18.09;50.38;101274.97;5052780;28;20184;-72
2020/12/02 07:56:21;;;;;;;1.80;1.70;;;;;;;18.07;50.22;101272.41;5053664;28;20534;-73
2020/12/02 07:58:47;;;;;;;1.63;1.53;;;;;;;18.05;50.33;101270.84;5019827;28;20277;-72
2020/12/02 08:01:29;;;;;;;1.73;1.63;;;;;;;18.03;50.00;101281.84;5035519;28;20238;-71
2020/12/02 08:03:55;;;;;;;1.70;1.60;;;;;;;18.02;50.37;101273.88;5035929;28;20192;-72
2020/12/02 08:07:01;;;;;;;1.90;1.80;;;;;;;18.01;50.22;101278.44;5036321;28;20192;-72
2020/12/02 08:09:27;;;;;;;1.67;1.57;;;;;;;18.01;49.90;101278.44;5053010;28;20195;-71
2020/12/02 08:11:58;;;;;;;1.80;1.70;;;;;;;18.05;50.06;101277.13;5052152;28;20269;-71
2020/12/02 08:14:36;;;;;;;1.73;1.63;;;;;;;18.12;50.07;101273.78;5052275;28;20227;-72
2020/12/02 08:17:11;;;;;;;2.00;1.90;;;;;;;18.19;49.81;101261.34;5035922;28;20180;-72
2020/12/02 08:19:38;;;;;;;1.70;1.60;;;;;;;18.27;50.13;101272.28;5053445;28;20187;-71
2020/12/02 08:22:04;;;;;;;1.70;1.60;;;;;;;18.32;49.80;101265.41;5035937;28;20199;-70
2020/12/02 08:24:43;;;;;;;1.63;1.53;;;;;;;18.39;50.10;101271.91;5035799;28;20184;-70
2020/12/02 08:27:10;;;;;;;1.70;1.60;;;;;;;18.45;50.06;101265.00;5035970;28;20210;-71
2020/12/02 08:29:36;;;;;;;1.63;1.53;;;;;;;18.52;49.97;101271.53;5035960;28;20184;-72
2020/12/02 08:32:04;;;;;;;2.23;1.80;;;;;;;18.59;50.08;101272.63;5035524;28;20603;-72
2020/12/02 08:34:32;;;;;;;2.00;1.90;;;;;;;18.64;49.59;101259.47;5051984;28;20188;-72
2020/12/02 08:37:10;;;;;;;1.80;1.70;;;;;;;18.69;49.67;101257.19;5054248;28;20187;-72
2020/12/02 08:39:38;;;;;;;1.90;1.80;;;;;;;18.73;49.89;101265.00;5068317;28;20693;-72
2020/12/02 08:42:04;;;;;;;1.70;1.60;;;;;;;18.75;49.49;101265.69;5038627;28;20186;-72
2020/12/02 08:44:30;;;;;;;1.60;1.50;;;;;;;18.76;49.73;101259.25;5071594;28;20521;-70
2020/12/02 08:46:59;;;;;;;1.80;1.70;;;;;;;18.77;49.64;101255.53;5030956;28;20271;-72
2020/12/02 08:49:30;;;;;;;1.70;1.60;;;;;;;18.77;49.17;101258.25;5034653;28;20257;-72
2020/12/02 08:51:56;;;;;;;1.70;1.60;;;;;;;18.77;49.45;101255.53;5051713;28;20204;-69
2020/12/02 08:54:24;;;;;;;1.87;1.77;;;;;;;18.75;49.53;101255.69;5052403;28;20680;-71
2020/12/02 08:56:51;;;;;;;1.80;1.70;;;;;;;18.72;49.56;101247.88;5035033;28;20192;-73
2020/12/02 08:59:17;;;;;;;1.73;1.63;;;;;;;18.73;49.52;101241.44;5039501;28;20285;-68
2020/12/02 09:01:44;;;;;;;1.90;1.80;;;;;;;18.74;49.77;101243.16;5033911;28;20191;-68
2020/12/02 09:04:10;;;;;;;1.50;1.40;;;;;;;18.79;49.83;101235.38;5051778;28;20184;-66
2020/12/02 09:06:36;;;;;;;1.93;1.70;;;;;;;18.85;50.09;101239.31;5068684;28;20184;-66
2020/12/02 09:09:03;;;;;;;1.70;1.60;;;;;;;18.93;50.35;101234.00;5068470;28;20214;-65
2020/12/02 09:11:35;;;;;;;1.83;1.73;;;;;;;19.01;50.28;101234.03;5067657;28;20226;-70
2020/12/02 09:14:02;;;;;;;1.80;1.70;;;;;;;19.10;50.51;101232.22;5051415;28;20187;-71
2020/12/02 09:16:38;;;;;;;1.70;1.60;;;;;;;19.20;50.65;101233.84;5068270;28;20526;-68
2020/12/02 09:19:07;;;;;;;1.80;1.70;;;;;;;19.29;50.59;101232.88;5068359;28;20227;-74
2020/12/02 09:21:33;;;;;;;1.70;1.60;;;;;;;19.39;50.77;101226.47;5035435;28;20187;-69
2020/12/02 09:23:59;;;;;;;1.70;1.60;;;;;;;19.47;50.64;101221.09;5068043;28;20260;-69
2020/12/02 09:26:28;;;;;;;1.73;1.63;;;;;;;19.58;50.50;101218.97;5035021;28;20294;-74
2020/12/02 09:28:54;;;;;;;1.70;1.60;;;;;;;19.67;50.39;101219.88;5068184;28;20290;-74
2020/12/02 09:31:21;;;;;;;1.60;1.50;;;;;;;19.77;50.40;101215.16;5068174;28;20580;-74
2020/12/02 09:33:47;;;;;;;1.60;1.50;;;;;;;19.84;50.27;101210.75;5034975;28;20237;-74
2020/12/02 09:36:14;;;;;;;1.93;1.60;;;;;;;19.93;50.46;101215.22;5068062;28;20188;-72
2020/12/02 09:38:40;;;;;;;2.47;1.50;;;;;;;20.00;50.36;101209.97;5067878;28;20208;-73
2020/12/02 09:41:21;;;;;;;4.67;1.60;;;;;;;20.06;50.31;101213.88;5051197;28;20526;-74
2020/12/02 09:43:53;;;;;;;1.73;1.63;;;;;;;20.12;50.33;101213.25;5067990;28;20193;-74
2020/12/02 09:46:19;;;;;;;2.17;1.60;;;;;;;20.18;50.09;101210.72;5067914;28;20246;-74
2020/12/02 09:48:46;;;;;;;2.93;1.63;;;;;;;20.26;50.31;101199.00;5067843;28;20200;-71
2020/12/02 09:51:22;;;;;;;1.70;1.60;;;;;;;20.32;50.29;101198.31;5051169;28;20235;-70
2020/12/02 09:53:49;;;;;;;2.90;1.80;;;;;;;20.39;50.19;101193.94;5052160;28;20179;-70
2020/12/02 09:56:17;;;;;;;1.83;1.70;;;;;;;20.45;49.96;101193.28;5051445;28;20191;-73
2020/12/02 09:58:43;;;;;;;1.70;1.60;;;;;;;20.51;50.10;101192.59;5076457;28;20234;-72
2020/12/02 10:01:29;;;;;;;2.00;1.70;;;;;;;20.60;49.90;101189.91;5088003;28;20218;-74
2020/12/02 10:04:36;;;;;;;1.93;1.77;;;;;;;20.66;50.15;101186.50;5056323;28;20691;-70
2020/12/02 10:07:19;;;;;;;2.37;1.53;;;;;;;20.72;50.15;101178.50;5088976;28;20233;-69
2020/12/02 10:09:52;;;;;;;1.80;1.70;;;;;;;20.79;49.82;101184.09;5055546;28;20198;-71
2020/12/02 10:12:39;;;;;;;2.07;1.63;;;;;;;20.86;49.66;101176.97;5071329;28;20351;-76
2020/12/02 10:15:21;;;;;;;2.53;1.90;;;;;;;20.91;49.77;101171.84;5087867;28;20182;-75
2020/12/02 10:18:03;;;;;;;3.90;2.10;;;;;;;20.97;49.43;101164.84;5088107;28;20198;-72
2020/12/02 10:20:44;;;;;;;3.90;1.93;;;;;;;21.03;49.55;101164.16;5071813;28;20189;-71
2020/12/02 10:23:38;;;;;;;2.00;1.60;;;;;;;21.10;49.57;101157.88;5087982;28;20197;-71
2020/12/02 10:26:55;;;;;;;2.60;1.67;;;;;;;21.17;49.10;101159.88;5092871;28;20234;-72
2020/12/02 10:29:31;;;;;;;1.73;1.60;;;;;;;21.22;49.28;101157.47;5068999;28;20187;-72
2020/12/02 10:32:23;;;;;;;2.00;1.90;;;;;;;21.28;49.14;101156.81;5075358;28;20211;-73
2020/12/02 10:34:49;;;;;;;2.53;1.73;;;;;;;21.32;49.23;101150.00;5059722;28;20186;-73
2020/12/02 10:37:19;;;;;;;3.80;1.73;;;;;;;21.38;49.30;101143.84;5091557;28;20213;-69
2020/12/02 10:39:46;;;;;;;2.90;1.57;;;;;;;21.42;49.32;101143.31;5074994;28;20197;-71
2020/12/02 10:42:38;;;;;;;1.93;1.63;;;;;;;21.48;49.27;101141.75;5074643;28;20234;-71
2020/12/02 10:45:12;;;;;;;2.30;1.73;;;;;;;21.54;49.38;101134.78;5091262;28;20324;-71
2020/12/02 10:48:10;;;;;;;1.50;1.40;;;;;;;21.58;49.11;101128.78;5075101;28;20198;-74
2020/12/02 10:50:36;;;;;;;2.20;1.67;;;;;;;21.63;49.04;101120.91;5091176;28;20657;-71
2020/12/02 10:53:06;;;;;;;1.67;1.53;;;;;;;21.68;49.15;101121.22;5091256;28;20238;-70
2020/12/02 10:55:33;;;;;;;1.87;1.63;;;;;;;21.72;48.94;101106.22;5057951;28;20209;-73
2020/12/02 10:58:20;;;;;;;3.03;1.70;;;;;;;21.79;49.08;101110.97;5062316;28;20421;-75
2020/12/02 11:01:14;;;;;;;1.87;1.77;;;;;;;21.84;49.29;101097.66;5056208;28;20190;-69
2020/12/02 11:03:40;;;;;;;2.13;1.70;;;;;;;21.90;49.43;101107.81;5071574;28;20241;-70
2020/12/02 11:06:10;;;;;;;2.67;1.80;;;;;;;21.94;49.38;101090.06;5050816;28;20198;-69
2020/12/02 11:09:19;;;;;;;1.70;1.60;;;;;;;21.99;49.21;101088.50;5071647;28;20199;-68
2020/12/02 11:12:04;;;;;;;1.87;1.60;;;;;;;22.05;49.16;101085.09;5056886;28;20199;-68
2020/12/02 11:14:37;;;;;;;2.50;1.87;;;;;;;22.10;49.24;101079.09;5071549;28;20191;-72
2020/12/02 11:17:19;;;;;;;4.03;2.20;;;;;;;22.17;49.24;101077.31;5070564;28;20183;-68
2020/12/02 11:19:52;;;;;;;3.50;2.23;;;;;;;22.23;49.28;101071.13;5070691;28;20179;-69
2020/12/02 11:22:40;;;;;;;3.80;2.87;;;;;;;22.27;49.43;101067.03;5070570;28;20278;-67
2020/12/02 11:25:30;;;;;;;4.20;2.90;;;;;;;22.32;49.13;101064.59;5054284;28;20223;-70
2020/12/02 11:27:56;;;;;;;3.10;2.80;;;;;;;22.38;49.18;101070.31;5033160;28;20243;-69
2020/12/02 11:30:26;;;;;;;4.90;3.67;;;;;;;22.41;49.33;101069.94;5036609;28;20180;-67
2020/12/02 11:33:11;;;;;;;5.17;4.20;;;;;;;22.46;49.43;101072.97;5053080;28;20250;-70
2020/12/02 11:36:16;;;;;;;6.90;4.87;;;;;;;22.51;49.41;101067.81;5052983;28;20678;-69
2020/12/02 11:39:12;;;;;;;9.00;6.03;;;;;;;22.54;49.40;101057.38;5046911;28;20247;-68
2020/12/02 11:42:01;;;;;;;9.50;6.67;;;;;;;22.60;49.47;101056.63;5052910;28;20184;-74
2020/12/02 11:44:51;;;;;;;11.40;7.17;;;;;;;22.63;49.56;101061.72;5052727;28;20218;-68
2020/12/02 11:47:27;;;;;;;9.93;7.13;;;;;;;22.67;49.39;101048.53;5054105;28;20227;-69